Time;durP1;ratioP1;P1;durP2;ratioP2;P2;SDS_P1;SDS_P2;PMS_P1;PMS_P2;Temp;Humidity;BMP_temperature;BMP_pressure;BME280_temperature;BME280_humidity;BME280_pressure;Samples;Min_cycle;Max_cycle;Signal;HPM_P1;HPM_P2
2021/10/05 00:01:50;;;;;;;12.77;7.97;;;;;;;-139.48;100.00;61774.03;4960993;28;20154;-70
2021/10/05 00:04:34;;;;;;;11.10;8.77;;;;;;;-139.48;100.00;61774.03;4961029;28;20145;-69
2021/10/05 00:07:18;;;;;;;15.73;9.30;;;;;;;-139.48;100.00;61774.03;4960963;28;20106;-69
2021/10/05 00:10:05;;;;;;;11.48;8.93;;;;;;;-139.48;100.00;61774.03;4947149;28;20053;-69
2021/10/05 00:12:49;;;;;;;10.07;8.35;;;;;;;-139.48;100.00;61774.03;4960731;28;20128;-69
2021/10/05 00:15:34;;;;;;;10.45;8.15;;;;;;;-139.48;100.00;61774.03;4960890;28;20046;-69
2021/10/05 00:18:18;;;;;;;19.75;9.25;;;;;;;-139.48;100.00;61774.03;4975231;28;20100;-69
2021/10/05 00:21:03;;;;;;;16.63;9.10;;;;;;;-139.48;100.00;61774.03;4947183;28;20105;-69
2021/10/05 00:23:47;;;;;;;12.13;8.80;;;;;;;-139.48;100.00;61774.03;4947053;28;20109;-70
2021/10/05 00:26:30;;;;;;;11.90;8.48;;;;;;;-139.48;100.00;61774.03;4960357;28;20130;-69
2021/10/05 00:29:14;;;;;;;13.63;9.25;;;;;;;-139.48;100.00;61774.03;4974195;28;20054;-69
2021/10/05 00:31:59;;;;;;;;;;;;;;;-139.48;100.00;61774.03;4960557;28;20053;-69
2021/10/05 00:34:42;;;;;;;12.75;9.15;;;;;;;-139.48;100.00;61774.03;4947027;28;20004;-69
2021/10/05 00:37:26;;;;;;;;;;;;;;;-139.48;100.00;61774.03;4947320;28;20105;-69
2021/10/05 00:40:10;;;;;;;13.82;9.32;;;;;;;-139.48;100.00;61774.03;4960391;28;19922;-69
2021/10/05 00:42:54;;;;;;;11.50;9.40;;;;;;;-139.48;100.00;61774.03;4974708;28;20092;-70
2021/10/05 00:45:39;;;;;;;18.20;10.55;;;;;;;-139.48;100.00;61774.03;4946839;28;20130;-69
2021/10/05 00:48:23;;;;;;;13.70;11.07;;;;;;;-139.48;100.00;61774.03;4960244;28;20053;-69
2021/10/05 00:51:07;;;;;;;17.42;10.93;;;;;;;-139.48;100.00;61774.03;4960158;28;20097;-70
2021/10/05 00:53:51;;;;;;;;;;;;;;;-139.48;100.00;61774.03;4960532;28;20642;-69
2021/10/05 00:56:34;;;;;;;18.58;12.13;;;;;;;-139.48;100.00;61774.03;4960149;28;19937;-69
2021/10/05 00:59:18;;;;;;;16.02;10.98;;;;;;;-139.48;100.00;61774.03;4974826;28;20057;-69
2021/10/05 01:02:08;;;;;;;13.45;11.27;;;;;;;-139.48;100.00;61774.03;4959875;28;20058;-71
2021/10/05 01:04:52;;;;;;;15.88;11.32;;;;;;;-139.48;100.00;61774.03;4974714;28;20085;-69
2021/10/05 01:07:35;;;;;;;13.50;10.57;;;;;;;-139.48;100.00;61774.03;4960061;28;20097;-69
2021/10/05 01:10:20;;;;;;;14.73;12.10;;;;;;;-139.48;100.00;61774.03;4959898;28;20053;-70
2021/10/05 01:13:03;;;;;;;15.63;12.30;;;;;;;-139.48;100.00;61774.03;4959805;28;20058;-69
2021/10/05 01:15:47;;;;;;;20.55;11.68;;;;;;;-139.48;100.00;61774.03;4959993;28;20046;-69
2021/10/05 01:18:31;;;;;;;17.23;12.82;;;;;;;-139.48;100.00;61774.03;4959845;28;20221;-70
2021/10/05 01:21:15;;;;;;;14.98;12.88;;;;;;;-139.48;100.00;61774.03;4959951;28;20077;-70
2021/10/05 01:24:07;;;;;;;16.10;12.95;;;;;;;-139.48;100.00;61774.03;4974258;28;20098;-70
2021/10/05 01:26:54;;;;;;;17.85;12.93;;;;;;;-139.48;100.00;61774.03;4946174;28;20109;-69
2021/10/05 01:29:38;;;;;;;15.98;12.27;;;;;;;-139.48;100.00;61774.03;4960077;28;20583;-70
2021/10/05 01:32:22;;;;;;;18.13;13.25;;;;;;;-139.48;100.00;61774.03;4959612;28;20053;-69
2021/10/05 01:35:08;;;;;;;17.88;14.73;;;;;;;-139.48;100.00;61774.03;4946041;28;20054;-70
2021/10/05 01:37:52;;;;;;;21.48;14.65;;;;;;;-139.48;100.00;61774.03;4959803;28;20497;-69
2021/10/05 01:40:36;;;;;;;21.05;13.98;;;;;;;-139.48;100.00;61774.03;4946969;28;20054;-70
2021/10/05 01:43:20;;;;;;;20.25;13.82;;;;;;;-139.48;100.00;61774.03;4949758;28;20050;-70
2021/10/05 01:46:11;;;;;;;21.20;14.57;;;;;;;-139.48;100.00;61774.03;4949963;28;20073;-70
2021/10/05 01:48:55;;;;;;;20.95;14.35;;;;;;;-139.48;100.00;61774.03;4964308;28;20093;-70
2021/10/05 01:51:40;;;;;;;19.70;13.88;;;;;;;-139.48;100.00;61774.03;4949862;28;20054;-69
2021/10/05 01:54:24;;;;;;;21.00;14.50;;;;;;;-139.48;100.00;61774.03;4963545;28;20181;-70
2021/10/05 01:57:08;;;;;;;21.30;14.43;;;;;;;-139.48;100.00;61774.03;4963638;28;20052;-70
2021/10/05 01:59:51;;;;;;;20.23;15.45;;;;;;;-139.48;100.00;61774.03;4963005;28;20420;-69
2021/10/05 02:02:35;;;;;;;20.13;15.63;;;;;;;15.21;100.00;100999.22;4977580;28;20049;-69
2021/10/05 02:05:19;;;;;;;21.58;15.95;;;;;;;12.76;100.00;100185.06;4963231;28;20137;-69
2021/10/05 02:08:03;;;;;;;21.63;14.98;;;;;;;12.73;100.00;100173.84;4949584;28;20412;-69
2021/10/05 02:10:47;;;;;;;21.17;15.75;;;;;;;12.72;100.00;100181.03;5095540;23;20116;-68
2021/10/05 02:13:31;;;;;;;22.13;16.02;;;;;;;12.68;100.00;100171.66;4996277;28;20420;-70
2021/10/05 02:16:16;;;;;;;19.50;14.55;;;;;;;12.71;100.00;100168.66;4996221;28;20107;-70
2021/10/05 02:19:00;;;;;;;16.63;13.50;;;;;;;12.74;100.00;100176.38;4996134;28;20085;-69
2021/10/05 02:21:45;;;;;;;17.17;12.73;;;;;;;12.78;100.00;100177.72;4982350;28;20093;-70
2021/10/05 02:27:14;;;;;;;18.58;13.93;;;;;;;12.82;100.00;100156.84;4996186;28;20053;-68
2021/10/05 02:29:58;;;;;;;22.15;15.65;;;;;;;12.82;100.00;100159.50;4981944;28;20719;-70
2021/10/05 02:32:43;;;;;;;17.23;13.15;;;;;;;12.83;100.00;100154.00;4996002;28;20049;-70
2021/10/05 02:35:27;;;;;;;21.73;14.63;;;;;;;12.87;100.00;100155.34;4996216;28;20518;-68
2021/10/05 02:38:11;;;;;;;18.27;14.25;;;;;;;12.89;100.00;100164.06;4995862;28;20057;-70
2021/10/05 02:40:55;;;;;;;16.77;12.77;;;;;;;12.92;100.00;100161.03;4995522;28;20050;-70
2021/10/05 02:43:39;;;;;;;16.75;12.43;;;;;;;12.92;100.00;100153.03;4995802;28;20120;-70
2021/10/05 02:46:23;;;;;;;22.20;13.48;;;;;;;12.93;100.00;100157.41;4995704;28;20044;-69
2021/10/05 02:49:07;;;;;;;21.27;14.18;;;;;;;12.93;100.00;100147.53;4996602;28;20097;-69
2021/10/05 02:51:51;;;;;;;22.80;15.48;;;;;;;12.96;100.00;100146.41;4995913;28;20134;-70
2021/10/05 02:54:35;;;;;;;18.02;14.35;;;;;;;12.96;100.00;100146.41;4981343;28;20104;-70
2021/10/05 02:57:20;;;;;;;20.95;15.38;;;;;;;12.96;100.00;100146.41;4995332;28;20053;-70
2021/10/05 03:00:05;;;;;;;21.92;14.85;;;;;;;-139.48;100.00;61774.03;4996423;28;20049;-70
2021/10/05 03:02:49;;;;;;;19.67;15.23;;;;;;;-139.48;100.00;61774.03;4995399;28;20077;-69
2021/10/05 03:05:33;;;;;;;22.67;15.43;;;;;;;-139.48;100.00;61774.03;4995063;28;20118;-69
2021/10/05 03:08:17;;;;;;;21.65;14.27;;;;;;;-139.48;100.00;61774.03;4996322;28;20101;-70
2021/10/05 03:11:02;;;;;;;16.70;12.70;;;;;;;12.96;100.00;100146.41;4994840;28;20407;-69
2021/10/05 03:13:48;;;;;;;18.95;13.93;;;;;;;12.96;100.00;100146.41;4994857;28;20096;-70
2021/10/05 03:16:32;;;;;;;18.02;13.02;;;;;;;-139.48;100.00;61774.03;4996117;28;20053;-70
2021/10/05 03:19:16;;;;;;;16.45;12.27;;;;;;;-139.48;100.00;61774.03;4996329;28;20057;-70
2021/10/05 03:22:00;;;;;;;19.40;14.52;;;;;;;-139.48;100.00;61774.03;4994901;28;20081;-69
2021/10/05 03:24:44;;;;;;;18.08;13.45;;;;;;;-139.48;100.00;61774.03;4995997;28;20105;-70
2021/10/05 03:27:28;;;;;;;18.85;13.13;;;;;;;-139.48;100.00;61774.03;4995631;28;20117;-69
2021/10/05 03:30:12;;;;;;;15.13;12.93;;;;;;;-139.48;100.00;61774.03;4981285;28;20049;-70
2021/10/05 03:32:56;;;;;;;18.15;13.02;;;;;;;-139.48;100.00;61774.03;4994844;28;20038;-70
2021/10/05 03:35:40;;;;;;;19.23;13.80;;;;;;;-139.48;100.00;61774.03;4980801;28;20057;-70
2021/10/05 03:38:24;;;;;;;21.48;14.15;;;;;;;-139.48;100.00;61774.03;4995423;28;20508;-69
2021/10/05 03:41:11;;;;;;;19.88;14.85;;;;;;;-139.48;100.00;61774.03;4994674;28;20049;-69
2021/10/05 03:43:55;;;;;;;20.52;13.40;;;;;;;-139.48;100.00;61774.03;4980926;28;20057;-69
2021/10/05 03:46:39;;;;;;;19.08;13.90;;;;;;;-139.48;100.00;61774.03;4995299;28;20173;-70
2021/10/05 03:49:23;;;;;;;23.70;13.88;;;;;;;-139.48;100.00;61774.03;4994537;28;20054;-69
2021/10/05 03:52:07;;;;;;;19.60;13.45;;;;;;;-139.48;100.00;61774.03;4994572;28;20173;-69
2021/10/05 03:54:51;;;;;;;18.35;12.95;;;;;;;-139.48;100.00;61774.03;4980782;28;20087;-69
2021/10/05 03:57:36;;;;;;;19.92;13.45;;;;;;;-139.48;100.00;61774.03;4994199;28;20128;-70
2021/10/05 04:00:20;;;;;;;16.88;13.23;;;;;;;-139.48;100.00;61774.03;4993787;28;20138;-69
2021/10/05 04:03:05;;;;;;;15.75;11.57;;;;;;;-139.48;100.00;61774.03;4994536;28;20054;-69
2021/10/05 04:05:50;;;;;;;17.45;12.15;;;;;;;-139.48;100.00;61774.03;4995176;28;20046;-70
2021/10/05 04:08:34;;;;;;;22.63;12.63;;;;;;;-139.48;100.00;61774.03;4980213;28;20053;-70
2021/10/05 04:11:18;;;;;;;14.80;11.50;;;;;;;-139.48;100.00;61774.03;4994291;28;20050;-70
2021/10/05 04:14:02;;;;;;;15.55;11.57;;;;;;;-139.48;100.00;61774.03;4980290;28;20053;-69
2021/10/05 04:16:45;;;;;;;16.23;11.68;;;;;;;-139.48;100.00;61774.03;4993888;28;20109;-69
2021/10/05 04:19:29;;;;;;;17.77;12.52;;;;;;;-139.48;100.00;61774.03;4994603;28;20558;-68
2021/10/05 04:22:13;;;;;;;18.25;12.77;;;;;;;-139.48;100.00;61774.03;4994222;28;20108;-70
2021/10/05 04:24:57;;;;;;;17.33;12.20;;;;;;;-139.48;100.00;61774.03;4980132;28;20126;-70
2021/10/05 04:27:41;;;;;;;20.35;13.55;;;;;;;-139.48;100.00;61774.03;4993874;28;20049;-70
2021/10/05 04:30:25;;;;;;;17.63;12.57;;;;;;;-139.48;100.00;61774.03;4994614;28;20153;-70
2021/10/05 04:33:09;;;;;;;16.25;12.38;;;;;;;-139.48;100.00;61774.03;4993778;28;20093;-69
2021/10/05 04:35:53;;;;;;;17.50;11.45;;;;;;;-139.48;100.00;61774.03;4993470;28;20053;-67
2021/10/05 04:38:37;;;;;;;16.20;11.20;;;;;;;-139.48;100.00;61774.03;4994649;28;20095;-70
2021/10/05 04:41:21;;;;;;;21.70;13.52;;;;;;;-139.48;100.00;61774.03;4993568;28;20053;-70
2021/10/05 04:44:04;;;;;;;17.58;12.68;;;;;;;-139.48;100.00;61774.03;4993356;28;20119;-69
2021/10/05 04:46:49;;;;;;;19.38;11.90;;;;;;;-139.48;100.00;61774.03;4979653;28;20057;-70
2021/10/05 04:49:33;;;;;;;12.90;10.20;;;;;;;-139.48;100.00;61774.03;4993424;28;20060;-67
2021/10/05 04:52:17;;;;;;;14.68;11.18;;;;;;;-139.48;100.00;61774.03;4993388;28;20112;-69
2021/10/05 04:55:02;;;;;;;13.63;10.75;;;;;;;-139.48;100.00;61774.03;4994119;28;20057;-69
2021/10/05 04:57:46;;;;;;;14.25;10.80;;;;;;;-139.48;100.00;61774.03;4993343;28;20093;-69
2021/10/05 05:00:30;;;;;;;24.02;13.27;;;;;;;-139.48;100.00;61774.03;4979385;28;20076;-70
2021/10/05 05:03:15;;;;;;;16.08;12.13;;;;;;;-139.48;100.00;61774.03;4994086;28;20053;-70
2021/10/05 05:05:58;;;;;;;16.60;11.80;;;;;;;-139.48;100.00;61774.03;4993271;28;20109;-69
2021/10/05 05:08:42;;;;;;;17.52;11.88;;;;;;;-139.48;100.00;61774.03;4993555;28;20113;-70
2021/10/05 05:11:26;;;;;;;14.63;10.70;;;;;;;-139.48;100.00;61774.03;4992843;28;20407;-69
2021/10/05 05:14:12;;;;;;;16.35;12.02;;;;;;;-139.48;100.00;61774.03;4994225;28;20053;-68
2021/10/05 05:16:55;;;;;;;15.88;11.85;;;;;;;-139.48;100.00;61774.03;4992639;28;20411;-69
2021/10/05 05:19:39;;;;;;;13.70;10.18;;;;;;;-139.48;100.00;61774.03;4993257;28;20061;-69
2021/10/05 05:22:23;;;;;;;14.13;10.90;;;;;;;-139.48;100.00;61774.03;4992868;28;20053;-70
2021/10/05 05:25:07;;;;;;;23.30;13.88;;;;;;;-139.48;100.00;61774.03;4992812;28;20101;-69
2021/10/05 05:27:51;;;;;;;23.95;14.95;;;;;;;-139.48;100.00;61774.03;4992795;28;20520;-70
2021/10/05 05:30:35;;;;;;;17.02;11.98;;;;;;;-139.48;100.00;61774.03;4994011;28;20052;-70
2021/10/05 05:33:19;;;;;;;20.15;13.45;;;;;;;-139.48;100.00;61774.03;4993780;28;20050;-70
2021/10/05 05:36:03;;;;;;;18.20;12.90;;;;;;;-139.48;100.00;61774.03;4979043;28;20100;-69
2021/10/05 05:38:47;;;;;;;25.17;16.15;;;;;;;-139.48;100.00;61774.03;4993719;28;20053;-70
2021/10/05 05:41:31;;;;;;;22.00;15.00;;;;;;;-139.48;100.00;61774.03;4992517;28;20110;-69
2021/10/05 05:44:15;;;;;;;19.02;12.88;;;;;;;-139.48;100.00;61774.03;4994117;28;20463;-69
2021/10/05 05:46:59;;;;;;;21.95;14.73;;;;;;;-139.48;100.00;61774.03;4993846;28;20049;-70
2021/10/05 05:49:43;;;;;;;19.35;12.95;;;;;;;-139.48;100.00;61774.03;4993532;28;20104;-69
2021/10/05 05:52:27;;;;;;;17.52;12.23;;;;;;;-139.48;100.00;61774.03;4993766;28;20159;-69
2021/10/05 05:55:15;;;;;;;20.10;12.43;;;;;;;-139.48;100.00;61774.03;4993098;28;20108;-69
2021/10/05 05:58:07;;;;;;;25.83;15.82;;;;;;;-139.48;100.00;61774.03;4993513;28;20080;-69
2021/10/05 06:00:51;;;;;;;23.75;13.95;;;;;;;-139.48;100.00;61774.03;4992755;28;20518;-69
2021/10/05 06:03:35;;;;;;;22.50;14.50;;;;;;;-139.48;100.00;61774.03;4994073;28;20045;-69
2021/10/05 06:06:19;;;;;;;28.48;16.75;;;;;;;-139.48;100.00;61774.03;4992765;28;20126;-69
2021/10/05 06:09:03;;;;;;;22.25;13.93;;;;;;;-139.48;100.00;61774.03;4992433;28;20073;-69
2021/10/05 06:11:49;;;;;;;27.00;16.52;;;;;;;-139.48;100.00;61774.03;4992152;28;20041;-69
2021/10/05 06:14:33;;;;;;;20.92;13.50;;;;;;;-139.48;100.00;61774.03;4992427;28;20054;-69
2021/10/05 06:17:17;;;;;;;25.67;15.15;;;;;;;-139.48;100.00;61774.03;4992468;28;20097;-69
2021/10/05 06:20:01;;;;;;;25.35;14.98;;;;;;;-139.48;100.00;61774.03;4992427;28;20081;-70
2021/10/05 06:22:45;;;;;;;22.08;15.07;;;;;;;-139.48;100.00;61774.03;4978498;28;20522;-70
2021/10/05 06:25:31;;;;;;;22.60;13.77;;;;;;;-139.48;100.00;61774.03;4978729;28;20096;-68
2021/10/05 06:28:15;;;;;;;23.85;15.43;;;;;;;-139.48;100.00;61774.03;4993537;28;20049;-70
2021/10/05 06:31:01;;;;;;;19.83;13.70;;;;;;;-139.48;100.00;61774.03;4995493;28;20049;-70
2021/10/05 06:33:45;;;;;;;21.63;13.95;;;;;;;-139.48;100.00;61774.03;4982039;28;20049;-69
2021/10/05 06:36:29;;;;;;;;;;;;;;;-139.48;100.00;61774.03;4996450;28;20048;-70
2021/10/05 06:39:13;;;;;;;22.60;15.17;;;;;;;-139.48;100.00;61774.03;4995742;28;19924;-70
2021/10/05 06:41:57;;;;;;;24.10;14.63;;;;;;;-139.48;100.00;61774.03;4995881;28;20072;-70
2021/10/05 06:44:41;;;;;;;19.25;12.95;;;;;;;-139.48;100.00;61774.03;4981591;28;20068;-69
2021/10/05 06:47:25;;;;;;;23.05;14.98;;;;;;;-139.48;100.00;61774.03;4995544;28;20050;-69
2021/10/05 06:50:09;;;;;;;26.33;15.27;;;;;;;-139.48;100.00;61774.03;4995159;28;20514;-70
2021/10/05 06:52:53;;;;;;;21.73;14.13;;;;;;;-139.48;100.00;61774.03;4981647;28;20050;-70
2021/10/05 06:55:37;;;;;;;22.13;13.88;;;;;;;-139.48;100.00;61774.03;4996164;28;20096;-69
2021/10/05 06:58:21;;;;;;;22.00;14.35;;;;;;;-139.48;100.00;61774.03;4996374;28;20518;-70
2021/10/05 07:01:05;;;;;;;18.20;12.63;;;;;;;-139.48;100.00;61774.03;4995258;28;20570;-70
2021/10/05 07:03:48;;;;;;;20.45;12.43;;;;;;;-139.48;100.00;61774.03;4981519;28;20129;-69
2021/10/05 07:06:33;;;;;;;20.48;13.40;;;;;;;-139.48;100.00;61774.03;4995218;28;20526;-69
2021/10/05 07:09:16;;;;;;;19.80;13.27;;;;;;;-139.48;100.00;61774.03;4995152;28;20065;-69
2021/10/05 07:12:00;;;;;;;22.88;13.63;;;;;;;-139.48;100.00;61774.03;4980927;28;20069;-69
2021/10/05 07:14:44;;;;;;;22.83;13.95;;;;;;;-139.48;100.00;61774.03;4996062;28;20566;-69
2021/10/05 07:17:28;;;;;;;27.23;14.02;;;;;;;-139.48;100.00;61774.03;4994750;28;20097;-69
2021/10/05 07:20:13;;;;;;;20.85;12.90;;;;;;;-139.48;100.00;61774.03;4994632;28;20053;-67
2021/10/05 07:22:58;;;;;;;25.77;14.25;;;;;;;-139.48;100.00;61774.03;4994764;28;20524;-69
2021/10/05 07:25:42;;;;;;;24.08;14.32;;;;;;;-139.48;100.00;61774.03;4980840;28;20569;-69
2021/10/05 07:28:25;;;;;;;27.95;13.88;;;;;;;-139.48;100.00;61774.03;4995758;28;20065;-69
2021/10/05 07:31:09;;;;;;;25.70;14.52;;;;;;;-139.48;100.00;61774.03;4980674;28;20134;-69
2021/10/05 07:33:53;;;;;;;23.60;14.18;;;;;;;-139.48;100.00;61774.03;4994711;28;20096;-69
2021/10/05 07:36:37;;;;;;;23.98;15.10;;;;;;;-139.48;100.00;61774.03;4980865;28;20061;-67
2021/10/05 07:39:21;;;;;;;22.02;13.20;;;;;;;-139.48;100.00;61774.03;4994966;28;20132;-70
2021/10/05 07:42:06;;;;;;;23.35;13.55;;;;;;;-139.48;100.00;61774.03;4994778;28;20128;-69
2021/10/05 07:44:50;;;;;;;29.17;14.05;;;;;;;-139.48;100.00;61774.03;4995464;28;20053;-70
2021/10/05 07:47:34;;;;;;;20.85;12.13;;;;;;;-139.48;100.00;61774.03;4995061;28;20101;-69
2021/10/05 07:50:19;;;;;;;25.05;12.77;;;;;;;-139.48;100.00;61774.03;4980427;28;20053;-69
2021/10/05 07:53:03;;;;;;;17.88;10.60;;;;;;;-139.48;100.00;61774.03;4980534;28;20049;-69
2021/10/05 07:55:47;;;;;;;19.77;10.90;;;;;;;-139.48;100.00;61774.03;4994269;28;20085;-69
2021/10/05 07:58:31;;;;;;;19.35;10.80;;;;;;;-139.48;100.00;61774.03;4994985;28;20064;-69
2021/10/05 08:01:15;;;;;;;21.27;11.45;;;;;;;-139.48;100.00;61774.03;4980190;28;20041;-69
2021/10/05 08:03:59;;;;;;;20.85;11.52;;;;;;;-139.48;100.00;61774.03;4994356;28;20069;-69
2021/10/05 08:06:43;;;;;;;19.88;11.35;;;;;;;-139.48;100.00;61774.03;4994056;28;20053;-70
2021/10/05 08:09:27;;;;;;;18.40;11.20;;;;;;;-139.48;100.00;61774.03;4980187;28;20109;-70
2021/10/05 08:12:11;;;;;;;18.83;10.50;;;;;;;-139.48;100.00;61774.03;4990981;23;20531;-70
2021/10/05 08:14:55;;;;;;;16.05;10.45;;;;;;;-139.48;100.00;61774.03;4974496;28;20101;-69
2021/10/05 08:17:39;;;;;;;18.70;11.23;;;;;;;-139.48;100.00;61774.03;4975136;28;20053;-70
2021/10/05 08:20:24;;;;;;;18.60;11.23;;;;;;;-139.48;100.00;61774.03;4974177;28;20089;-69
2021/10/05 08:23:08;;;;;;;20.75;12.07;;;;;;;-139.48;100.00;61774.03;4955039;29;20103;-70
2021/10/05 08:25:52;;;;;;;18.58;10.95;;;;;;;-139.48;100.00;61774.03;4941674;29;20080;-68
2021/10/05 08:28:36;;;;;;;19.13;11.65;;;;;;;-139.48;100.00;61774.03;4954776;29;20046;-70
2021/10/05 08:31:20;;;;;;;21.35;12.85;;;;;;;-139.48;100.00;61774.03;4954651;28;20567;-69
2021/10/05 08:34:04;;;;;;;20.27;12.63;;;;;;;-139.48;100.00;61774.03;4954642;29;20412;-70
2021/10/05 08:36:48;;;;;;;17.05;11.40;;;;;;;-139.48;100.00;61774.03;4955794;29;20050;-70
2021/10/05 08:39:32;;;;;;;13.70;9.00;;;;;;;-139.48;100.00;61774.03;4941485;29;20050;-69
2021/10/05 08:42:22;;;;;;;17.27;9.18;;;;;;;-139.48;100.00;61774.03;4954493;29;20127;-70
2021/10/05 08:45:07;;;;;;;12.32;9.55;;;;;;;-139.48;100.00;61774.03;4954676;29;20069;-70
2021/10/05 08:47:51;;;;;;;12.48;8.13;;;;;;;-139.48;100.00;61774.03;4940940;29;20424;-70
2021/10/05 08:50:36;;;;;;;10.45;7.63;;;;;;;-139.48;100.00;61774.03;4953916;28;20177;-69
2021/10/05 08:53:20;;;;;;;10.48;7.50;;;;;;;-139.48;100.00;61774.03;4940835;29;20186;-69
2021/10/05 08:56:06;;;;;;;10.48;7.53;;;;;;;-139.48;100.00;61774.03;4954567;29;20046;-69
2021/10/05 08:58:50;;;;;;;9.00;7.05;;;;;;;-139.48;100.00;61774.03;4954514;29;20408;-70
2021/10/05 09:01:34;;;;;;;9.68;7.28;;;;;;;-139.48;100.00;61774.03;4954134;29;20472;-69
2021/10/05 09:04:20;;;;;;;9.15;7.35;;;;;;;-139.48;100.00;61774.03;4955064;29;20110;-69
2021/10/05 09:07:17;;;;;;;8.98;7.07;;;;;;;-139.48;100.00;61774.03;4954426;29;20515;-70
2021/10/05 09:10:03;;;;;;;13.35;5.78;;;;;;;-139.48;100.00;61774.03;4954357;29;20054;-70
2021/10/05 09:12:48;;;;;;;10.20;5.95;;;;;;;-139.48;100.00;61774.03;4953821;29;20103;-69
2021/10/05 09:15:33;;;;;;;6.68;5.30;;;;;;;-139.48;100.00;61774.03;4954106;29;20054;-69
2021/10/05 09:18:16;;;;;;;7.47;5.72;;;;;;;-139.48;100.00;61774.03;4955130;29;20158;-69
2021/10/05 09:21:01;;;;;;;5.90;5.25;;;;;;;-139.48;100.00;61774.03;4940430;28;20046;-70
2021/10/05 09:23:56;;;;;;;7.18;5.78;;;;;;;-139.48;100.00;61774.03;4940454;29;20118;-69
2021/10/05 09:26:51;;;;;;;7.22;5.30;;;;;;;-139.48;100.00;61774.03;4954197;29;20153;-70
2021/10/05 09:29:37;;;;;;;6.50;5.57;;;;;;;-139.48;100.00;61774.03;4954750;29;20118;-69
2021/10/05 09:32:22;;;;;;;5.80;5.18;;;;;;;-139.48;100.00;61774.03;4954717;28;20094;-70
2021/10/05 09:35:07;;;;;;;8.93;5.03;;;;;;;-139.48;100.00;61774.03;4940435;29;20138;-70
2021/10/05 09:37:53;;;;;;;7.47;4.78;;;;;;;-139.48;100.00;61774.03;4954186;29;20054;-69
2021/10/05 09:40:37;;;;;;;6.45;4.28;;;;;;;-139.48;100.00;61774.03;4954337;29;20061;-68
2021/10/05 09:43:22;;;;;;;5.20;4.55;;;;;;;-139.48;100.00;61774.03;4954107;29;20098;-70
2021/10/05 09:46:11;;;;;;;5.25;4.50;;;;;;;-139.48;100.00;61774.03;4954777;29;20559;-69
2021/10/05 09:49:06;;;;;;;4.88;4.05;;;;;;;-139.48;100.00;61774.03;4953783;29;20050;-70
2021/10/05 09:52:03;;;;;;;4.35;3.88;;;;;;;-139.48;100.00;61774.03;4940206;29;20452;-70
2021/10/05 09:54:47;;;;;;;4.25;3.65;;;;;;;-139.48;100.00;61774.03;4940790;29;20111;-69
2021/10/05 09:57:31;;;;;;;5.15;2.85;;;;;;;-139.48;100.00;61774.03;4953753;29;20050;-69
2021/10/05 10:00:16;;;;;;;3.00;2.70;;;;;;;-139.48;100.00;61774.03;4940422;29;20058;-70
2021/10/05 10:03:00;;;;;;;9.30;3.15;;;;;;;-139.48;100.00;61774.03;4956180;28;20086;-70
2021/10/05 10:05:45;;;;;;;4.35;2.97;;;;;;;-139.48;100.00;61774.03;4958504;29;20054;-70
2021/10/05 10:08:33;;;;;;;7.47;3.17;;;;;;;-139.48;100.00;61774.03;4943941;29;20433;-70
2021/10/05 10:11:17;;;;;;;4.82;3.13;;;;;;;-139.48;100.00;61774.03;4943687;28;20072;-69
2021/10/05 10:14:01;;;;;;;3.33;2.60;;;;;;;-139.48;100.00;61774.03;4958036;29;20062;-69
2021/10/05 10:16:48;;;;;;;4.20;2.30;;;;;;;-139.48;100.00;61774.03;4956989;29;20050;-70
2021/10/05 10:19:33;;;;;;;2.30;1.80;;;;;;;-139.48;100.00;61774.03;4957064;29;20066;-69
2021/10/05 10:22:18;;;;;;;4.43;2.13;;;;;;;-139.48;100.00;61774.03;4943682;29;20050;-70
2021/10/05 10:25:04;;;;;;;2.25;2.05;;;;;;;-139.48;100.00;61774.03;4957905;29;20049;-69
2021/10/05 10:27:48;;;;;;;2.28;1.83;;;;;;;-139.48;100.00;61774.03;4943741;29;20101;-70
2021/10/05 10:30:32;;;;;;;5.07;1.80;;;;;;;-139.48;100.00;61774.03;4956954;29;20134;-69
2021/10/05 10:33:17;;;;;;;2.15;1.95;;;;;;;-139.48;100.00;61774.03;4943570;29;20042;-70
2021/10/05 10:36:00;;;;;;;1.90;1.73;;;;;;;-139.48;100.00;61774.03;4956274;29;20058;-70
2021/10/05 10:38:46;;;;;;;1.90;1.70;;;;;;;-139.48;100.00;61774.03;4943049;29;20409;-70
2021/10/05 10:41:29;;;;;;;2.13;1.58;;;;;;;-139.48;100.00;61774.03;4957246;28;20051;-70
2021/10/05 10:44:19;;;;;;;1.50;1.25;;;;;;;-139.48;100.00;61774.03;4942649;29;20513;-69
2021/10/05 10:47:08;;;;;;;1.40;1.30;;;;;;;-139.48;100.00;61774.03;4955913;29;20054;-70
2021/10/05 10:49:58;;;;;;;1.25;1.00;;;;;;;-139.48;100.00;61774.03;4955912;29;20523;-70
2021/10/05 10:52:47;;;;;;;2.40;1.30;;;;;;;-139.48;100.00;61774.03;4942277;29;20085;-70
2021/10/05 10:55:33;;;;;;;2.40;1.17;;;;;;;-139.48;100.00;61774.03;4955830;29;20050;-70
2021/10/05 10:58:18;;;;;;;1.27;1.17;;;;;;;-139.48;100.00;61774.03;4956950;29;20049;-68
2021/10/05 11:01:02;;;;;;;1.20;1.10;;;;;;;-139.48;100.00;61774.03;4955791;28;20054;-69
2021/10/05 11:03:46;;;;;;;1.15;1.05;;;;;;;-139.48;100.00;61774.03;4942418;29;20050;-70
2021/10/05 11:06:29;;;;;;;;;;;;;;;25.44;49.13;99876.69;4955958;29;20428;-69
2021/10/05 11:09:15;;;;;;;1.88;0.90;;;;;;;-139.48;100.00;61774.03;4955531;29;20331;-70
2021/10/05 11:11:59;;;;;;;1.10;1.00;;;;;;;-139.48;100.00;61774.03;4941370;29;20053;-70
2021/10/05 11:14:44;;;;;;;1.50;1.00;;;;;;;24.93;49.90;115627.22;4954577;28;20424;-70
2021/10/05 11:17:32;;;;;;;0.85;0.85;;;;;;;26.76;45.76;99860.72;4956586;29;20552;-70
2021/10/05 11:20:16;;;;;;;0.95;0.80;;;;;;;28.17;41.64;99867.03;4956375;29;20559;-70
2021/10/05 11:23:01;;;;;;;1.17;0.90;;;;;;;28.28;40.25;99852.25;4955415;29;20094;-71
2021/10/05 11:25:50;;;;;;;1.33;1.00;;;;;;;28.89;40.01;99851.34;4956354;29;20416;-70
2021/10/05 11:28:35;;;;;;;2.75;1.00;;;;;;;26.58;45.17;99850.16;4956180;29;20057;-70
2021/10/05 11:31:19;;;;;;;0.93;0.90;;;;;;;26.27;46.08;99860.94;4941532;28;20519;-69
2021/10/05 11:34:04;;;;;;;1.33;0.93;;;;;;;26.67;42.84;99834.09;4955211;29;20061;-70
2021/10/05 11:36:48;;;;;;;1.13;1.02;;;;;;;24.21;48.12;99840.31;4955054;29;20058;-71
2021/10/05 11:39:34;;;;;;;0.82;0.82;;;;;;;22.64;54.40;99835.25;4941687;29;20054;-70
2021/10/05 11:42:21;;;;;;;0.80;0.80;;;;;;;21.25;60.38;99827.28;4954908;29;20115;-70
2021/10/05 11:45:06;;;;;;;3.42;1.00;;;;;;;21.80;55.65;99837.16;4955091;29;20471;-70
2021/10/05 11:47:56;;;;;;;1.13;1.02;;;;;;;21.95;57.11;99821.34;4955057;29;20114;-70
2021/10/05 11:50:40;;;;;;;1.35;0.90;;;;;;;21.95;57.11;99821.34;4954982;29;20125;-70
2021/10/05 11:53:35;;;;;;;0.80;0.80;;;;;;;21.95;57.11;99821.34;4955662;29;20043;-70
2021/10/05 11:56:21;;;;;;;2.88;0.82;;;;;;;-139.48;100.00;61774.03;4956139;29;20062;-70
2021/10/05 11:59:05;;;;;;;2.03;1.00;;;;;;;-139.48;100.00;61774.03;4954773;29;20130;-70
2021/10/05 12:01:49;;;;;;;;;;;;;;;-139.48;57.11;99821.34;4955022;29;20107;-69
2021/10/05 12:04:35;;;;;;;1.40;0.80;;;;;;;24.23;52.19;99786.47;4954628;29;20317;-70
2021/10/05 12:07:23;;;;;;;1.40;0.95;;;;;;;24.88;48.66;99784.91;4954511;29;20198;-69
2021/10/05 12:10:07;;;;;;;1.10;0.98;;;;;;;26.50;47.27;99770.47;4954316;29;20054;-70
2021/10/05 12:12:51;;;;;;;1.20;0.95;;;;;;;28.74;41.44;99758.03;4954513;28;20050;-70
2021/10/05 12:15:35;;;;;;;1.45;0.93;;;;;;;30.66;38.41;99758.00;4954473;29;20469;-71
2021/10/05 12:18:19;;;;;;;0.77;0.77;;;;;;;30.82;36.58;99756.81;4954673;29;20130;-68
2021/10/05 12:21:06;;;;;;;2.00;0.98;;;;;;;27.83;39.65;99764.38;4955243;28;20531;-71
2021/10/05 12:23:52;;;;;;;1.30;0.70;;;;;;;25.85;44.01;99764.25;4954422;29;20480;-70